Le Roy, Michigan
Current Conditions -  °F | °C
As of 8:15 PM on Saturday 20 Dec 2014 (Local Time) from KCAD Reporting Station
Overcast Overcast  
Wind Chill: 26°   Ceiling: 2900
Heat Index: 26°   Visibility: 10mi
Dew Point: 22°   Wind: 3mph
Humidity: 85%   Direction: 110°ESE
Pressure: 30.21"   Gusts: NA
Location:  44.0236°N, 85.4348°W
Report Text: KCAD 210115Z AUTO 11003KT 10SM OVC029 M03/M06 A3021 RMK AO2 T10351057
Loading
Personal Weather Stations






























Interactive Weather Map New forecast layout! Learn more

10-Day Weather Forecast

Advertisements
Track Severe Weather on mobile